Startseite
Über Mich
AHP4
Galerie
Sehschlangen
Tourenbuch
Bookmarks
Elektronik
Bewertung
Geschichten
[Tagesmessung] [Jahreswerte] [Information]

Messwerte vom 12.05.2022

Die letzten Messwerte von 23:58:50 Uhr:
KategorieMesswert
Temperatur [°C]9
Luftdruck [mBar]1002
Sonneneinstrahlung0
Wind [km/h]0 aus Nordwest
Niederschlag [l/m²]0
rel.Luftfeucht.85.5%
CO2 [ppm]568

Diagramme
Messwerte vom 12.05.2022
Tagesaggregation
KategorieMinimumMaximumSchnittSumme
Temperatur [°C]92616.4948
Luftdruck [mBar]9911003999.1921
Sonneneinstrahlung246136.4426
Wind [km/h]21
rF [%]30.696.666.68
Niederschlag [l/m²]1.2875
CO2 [ppm]396870578.3
Einordnung alsVegetationstag
Sommertag

Messungen an benachbarten Tagen: Zur Jahresaggregation 2022
Tabelle aller Messwerte
UhrzeitTemperatur [°C]Luftdruck [mBar]SonneWind [km/h]RichtungRegen [l/m²]rF [%]CO2 [ppm]
00:01:48 17 992 0 0 S 0 69.1 809
00:04:46 17 991 0 0 S 0 68.6 809
00:07:45 17 992 0 0 S 0 68.4 816
00:10:45 16 991 0 0 S 0 68.8 825
00:13:47 16 991 0 0 S 0 68.5 822
00:16:46 16 992 0 0 S 0 68.9 817
00:19:48 16 991 0 0 S 0 69.3 811
00:22:46 16 992 0 0 S 0 69.1 801
00:25:46 16 991 0 0 S 0 69.1 808
00:28:48 16 991 0 0 SO 0 69.3 811
00:31:46 16 991 0 0 O 0 69.8 817
00:34:47 16 991 0 0 O 0 69.7 822
00:37:47 16 991 0 0 O 0 69.9 822
00:40:47 16 991 0 0 O 0 70.8 828
00:43:45 16 991 0 0 O 0 70.7 826
00:46:46 16 991 0 0 O 0 70.5 821
00:49:46 16 991 0 0 O 0 70.5 826
00:52:45 16 991 0 0 O 0 71.6 835
00:55:45 16 991 0 0 O 0 72.5 834
00:58:46 15 991 0 0 O 0 72.7 834
01:01:45 15 991 0 0 O 0 73.4 834
01:04:48 15 991 0 0 NO 0 75.2 835
01:07:48 15 991 0 0 NO 0 75.6 837
01:10:47 15 991 0 0 NO 0 74.3 835
01:13:45 15 991 0 0 NO 0 74.6 837
01:16:46 15 991 0 0 NO 0 75.2 838
01:19:47 15 991 0 0 NO 0 74.8 837
01:22:46 15 991 0 0 NO 0 75.2 837
01:25:47 15 991 0 1 NW 0 75.5 838
01:28:46 15 992 0 0 W 0 76.2 844
01:31:48 16 991 0 1 W 0 75.6 849
01:34:46 16 991 0 1 W 0 75.4 852
01:37:45 16 993 0 8 W 0 75.7 850
01:40:46 16 993 0 4 SW 0 77 854
01:43:47 16 993 0 9 NW 0 78.5 862
01:46:47 15 994 0 16 W 0 82.1 870
01:49:32 15 994 0 10 W 0.2575 68.4 868
01:52:47 14 993 0 3 S 0.515 88.8 862
01:55:47 14 994 0 1 W 0 90.9 860
01:58:46 14 993 0 0 W 0 91.4 852
02:01:46 14 994 0 0 O 0 92.3 850
02:04:45 14 994 0 0 S 0.2575 92.3 843
02:07:45 14 994 0 0 S 0 92.9 843
02:10:46 14 993 0 0 S 0 93.4 835
02:13:46 14 994 0 2 S 0 93.5 837
02:16:46 14 994 0 2 W 0 93.9 840
02:19:45 14 994 0 0 S 0 94.5 843
02:22:49 14 993 0 0 SW 0 94.9 844
02:25:45 14 994 0 0 S 0 95.1 844
02:28:47 14 993 0 0 S 0 95.3 842
02:31:48 13 994 0 0 SO 0 95.6 830
02:34:48 13 993 0 0 SO 0 95.9 828
02:37:46 13 993 0 0 S 0 96.2 828
02:40:46 13 993 0 0 S 0 96.5 837
02:43:47 13 993 0 0 S 0 96.6 837
02:46:48 13 994 0 0 O 0 96.6 843
02:49:47 13 993 0 0 O 0 96.6 846
02:52:45 13 994 0 2 NW 0 96.6 851
02:55:48 13 994 0 0 S 0 96.6 848
02:58:45 13 994 0 1 SW 0 96.6 851
03:01:47 13 994 0 2 SO 0 96.6 843
03:04:47 13 994 0 1 S 0 96.6 840
03:07:47 13 994 0 0 W 0 96.6 835
03:10:46 13 994 0 2 O 0 96.6 841
03:13:47 13 994 0 4 SO 0 96.6 848
03:16:47 13 994 0 0 NW 0 96.6 849
03:19:45 13 994 0 1 S 0 96.6 850
03:22:47 13 995 0 0 S 0 96.6 846
03:25:49 13 995 0 0 NW 0 96.6 846
03:28:46 13 994 0 0 O 0 96.6 849
03:31:48 13 995 0 2 W 0 96.6 843
03:34:48 13 994 0 0 SW 0.2575 96.6 843
03:37:47 13 994 0 2 SW 0 96.6 841
03:40:46 13 994 0 0 W 0 96.6 846
03:43:49 13 995 0 2 SO 0 96.6 841
03:46:46 13 994 0 2 W 0 96.6 835
03:49:45 13 994 0 1 S 0 96.6 843
03:52:49 13 994 0 2 SO 0 96.6 842
03:55:45 13 994 0 2 S 0 96.6 841
04:01:50 13 994 0 2 SW 0 96.6 852
04:04:46 13 994 0 0 S 0 96.6 846
04:07:48 13 994 0 2 S 0 96.6 841
04:10:47 13 995 0 5 SO 0 96.6 846
04:13:50 13 994 0 2 SW 0 96.6 855
04:16:47 13 995 0 4 SW 0 96.6 856
04:19:46 13 994 0 5 SW 0 96.6 859
04:22:45 13 995 0 4 S 0 96.6 855
04:25:47 13 994 0 5 W 0 96.6 849
04:28:44 13 995 0 3 N 0 96.6 850
04:31:48 13 994 0 1 W 0 96.6 854
04:34:46 13 995 0 5 SO 0 96.6 858
04:37:45 13 994 0 3 N 0 96.6 869
04:40:46 13 995 0 6 O 0 96.6 867
04:43:48 13 995 0 2 NW 0 96.6 861
04:46:48 13 995 0 10 S 0 96.6 860
04:49:47 13 994 0 21 SW 0 96.6 858
04:52:47 13 995 0 3 W 0 96.6 857
04:55:46 13 995 0 4 S 0 96.6 857
04:58:46 13 995 3 7 S 0 96.6 858
05:01:48 13 995 4 6 SW 0 96.6 854
05:04:46 13 995 7 3 NW 0 96.6 851
05:07:49 13 995 12 20 NW 0 96.6 855
05:10:49 13 995 17 3 SW 0 96.6 852
05:13:46 13 995 23 11 W 0 96.6 855
05:16:48 12 995 29 3 NW 0 96.6 849
05:19:48 12 995 38 4 W 0 96.6 852
05:22:48 12 995 42 2 SW 0 96.6 843
05:25:48 12 995 44 11 W 0 96.6 839
05:28:46 12 995 64 16 W 0 96.6 831
05:31:50 12 995 77 14 NW 0 95.9 822
05:34:50 12 995 89 10 W 0 94.3 820
05:37:46 12 995 99 10 W 0 94 814
05:40:47 11 995 107 12 W 0 93.8 816
05:43:45 11 996 114 1 O 0 94.1 813
05:46:48 11 995 122 4 N 0 94.4 817
05:49:49 11 996 128 2 N 0 95 812
05:52:46 11 995 126 4 W 0 95.4 805
05:55:48 11 996 129 2 SO 0 95.7 800
05:58:46 11 995 138 7 W 0 95.7 805
06:01:49 11 997 145 9 NO 0 95.4 803
06:04:48 11 996 148 2 W 0 94.5 801
06:07:51 11 996 151 16 NW 0 93.9 798
06:10:49 11 996 153 5 N 0 93.1 796
06:13:46 11 996 158 3 S 0 93.2 792
06:16:46 11 997 162 5 W 0 93.9 782
06:19:50 11 997 163 5 NW 0 93.2 782
06:22:52 11 997 158 7 NW 0 93.2 788
06:25:50 11 997 165 2 SW 0 93.2 785
06:28:49 11 997 166 5 O 0 92.8 784
06:31:48 11 997 179 5 W 0 92.5 776
06:34:48 11 997 172 6 W 0 92.4 779
06:37:47 11 998 178 2 W 0 92.3 787
06:40:46 11 998 171 1 N 0 92.3 790
06:43:47 11 998 177 7 SW 0 91.9 791
06:46:48 11 998 175 11 NW 0 91.7 790
06:49:48 11 998 177 6 SO 0 91.4 783
06:52:48 11 998 180 1 SW 0 91.7 779
06:55:47 12 998 181 3 SW 0 90.6 747
06:58:49 12 998 184 1 NW 0 89.4 727
07:01:49 12 998 185 4 S 0 88.8 682
07:04:49 12 998 178 3 NW 0 89.3 646
07:07:48 11 998 182 6 N 0 89.2 627
07:10:48 11 998 181 2 O 0 88.4 612
07:13:48 11 998 180 3 NW 0 88.3 597
07:16:47 11 998 187 6 S 0 89.3 584
07:19:50 11 998 185 4 SW 0 89.8 562
07:22:48 11 998 188 2 O 0 90 554
07:25:47 12 998 185 7 S 0 90.9 556
07:28:50 13 998 185 5 SW 0 88.4 562
07:31:31 11 998 185 14 W 0 81.4 583
07:34:47 15 999 184 5 W 0 78.6 601
07:37:48 16 998 188 3 SO 0 77.5 612
07:40:48 17 999 197 4 SO 0 73.4 630
07:43:49 17 998 201 2 SW 0 72.9 629
07:46:50 16 999 200 1 SW 0 71.2 611
07:49:50 15 998 205 3 S 0 73.2 598
07:52:31 15 998 204 0 SO 0 64.2 605
07:55:48 14 999 193 6 W 0 78.2 614
07:58:48 14 999 189 3 NW 0 79.3 614
08:01:50 13 998 192 1 SO 0 80.1 615
08:04:49 13 999 190 4 W 0 80.5 618
08:07:49 13 999 195 2 SO 0 81.3 621
08:10:47 13 999 194 4 S 0 83.1 623
08:13:49 13 999 197 3 W 0 83.1 616
08:16:48 13 999 190 3 SW 0 83.2 617
08:19:48 13 999 191 2 W 0 84.2 612
08:22:48 13 999 201 4 O 0 84.6 606
08:25:46 13 999 194 4 W 0 84.4 594
08:28:53 13 999 198 8 SW 0 84.5 594
08:31:48 14 999 206 3 W 0 84.3 592
08:34:50 14 1000 193 2 SW 0 83.4 586
08:37:50 14 1000 197 2 O 0 82.5 591
08:40:50 14 1000 198 2 W 0 82.1 588
08:43:48 14 1000 199 5 W 0 81.9 585
08:46:50 14 1000 204 2 NO 0 81.8 591
08:49:51 14 1000 206 4 W 0 82.6 579
08:52:49 14 1000 209 2 SO 0 82.3 574
08:55:48 14 1000 208 0 NO 0 81.5 574
08:58:49 14 1000 213 0 NO 0 81.9 577
09:01:49 14 1000 216 1 SW 0 82.6 571
09:04:49 14 1001 210 2 S 0 82.4 565
09:07:50 15 1001 214 2 W 0 81.7 560
09:10:48 15 1001 215 4 N 0 81.3 559
09:13:49 15 1001 212 4 NW 0 80.4 557
09:16:49 15 1001 218 9 W 0 79 564
09:19:50 15 1002 212 3 SW 0 78.6 565
09:22:47 15 1001 216 2 S 0 79.5 562
09:25:49 15 1002 216 3 W 0 78.5 556
09:28:49 15 1001 215 3 SW 0 77.8 553
09:31:50 15 1002 213 2 NW 0 77 551
09:34:51 15 1001 220 2 NW 0 75.6 554
09:37:50 15 1002 218 4 NW 0 75.2 548
09:40:47 15 1002 219 1 NW 0 75.3 550
09:43:49 16 1002 218 2 SO 0 75.2 553
09:46:51 16 1002 217 0 NW 0 74 550
09:49:47 16 1002 220 1 NO 0 73.7 547
09:52:48 16 1002 220 5 NW 0 74.1 547
09:55:48 16 1002 219 1 W 0 72.8 548
09:58:48 16 1002 215 2 S 0 72.9 550
10:01:48 16 1001 219 2 W 0 71.2 542
10:04:48 16 1002 220 2 NW 0 70 548
10:07:48 16 1002 221 2 0 70.9 542
10:10:49 17 1002 224 2 W 0 70.3 536
10:13:49 17 1002 214 1 SW 0 68.6 536
10:16:46 17 1002 214 2 S 0 68.4 537
10:19:49 17 1002 221 3 SO 0 67.3 539
10:22:48 17 1002 219 3 O 0 66.7 535
10:25:48 17 1002 214 5 SW 0 66.4 529
10:28:48 17 1002 218 4 N 0 67.2 524
10:31:48 17 1002 223 7 W 0 67.1 527
10:34:49 17 1002 221 2 O 0 67.9 524
10:37:47 17 1002 218 4 S 0 65.4 523
10:40:50 17 1002 211 3 NW 0 65.2 521
10:43:49 17 1002 218 3 SW 0 65.7 515
10:46:31 16 1002 225 2 W 0 58.2 515
10:49:49 17 1002 219 10 W 0 68.7 517
10:52:49 18 1002 211 2 NW 0 66.4 518
10:55:50 18 1002 211 2 SO 0 64.8 522
10:58:49 17 1002 220 2 W 0 64.1 512
11:01:49 17 1002 224 3 SO 0 64.8 512
11:04:47 18 1002 222 6 O 0 65.2 512
11:07:48 18 1002 221 8 W 0 64.5 499
11:10:50 18 1002 218 15 NW 0 58.6 512
11:13:49 17 1002 217 12 W 0 61 512
11:16:48 17 1002 222 3 W 0 63.4 509
11:19:48 17 1002 215 9 W 0 64.5 509
11:22:50 17 1002 213 2 NW 0 64.6 505
11:25:49 17 1002 220 0 SO 0 63.8 503
11:28:49 17 1002 215 3 NW 0 63.3 500
11:31:46 18 1002 213 1 W 0 62.3 495
11:34:50 18 1002 218 2 SO 0 62 502
11:37:50 18 1002 216 4 W 0 60.8 507
11:40:45 18 1002 210 4 0 61 509
11:43:47 18 1002 221 9 S 0 60 497
11:46:50 18 1002 222 3 SO 0 60.5 494
11:49:49 18 1002 216 3 NW 0 59.3 500
11:52:46 18 1002 220 2 S 0 59.3 494
11:55:47 18 1002 223 2 O 0 60.6 492
11:58:47 18 1002 222 6 W 0 55.9 489
12:01:51 19 1002 220 2 NO 0 58.6 489
12:04:32 17 1002 219 1 SO 0 48.9 489
12:07:49 19 1002 223 3 NW 0 56.5 480
12:10:48 20 1002 220 3 W 0 56.2 480
12:13:49 20 1002 216 8 N 0 54.8 480
12:16:46 20 1002 217 4 S 0 54.1 477
12:19:50 20 1002 220 3 NW 0 53.7 477
12:22:48 21 1002 219 2 SW 0 53.8 474
12:25:49 21 1002 220 10 W 0 53 474
12:28:48 21 1002 209 5 NW 0 51.4 474
12:31:49 21 1002 214 9 N 0 50.8 480
12:34:49 21 1002 222 6 W 0 51.2 481
12:37:48 22 1002 226 12 SO 0 47.8 474
12:40:50 22 1002 217 2 SO 0 45.9 471
12:43:50 21 1002 212 6 SO 0 46 469
12:46:48 20 1002 209 4 S 0 47.9 468
12:49:48 19 1002 219 4 W 0 51.4 469
12:52:49 20 1002 227 5 W 0 56.1 463
12:55:51 20 1002 220 4 S 0 49.6 463
12:58:49 20 1002 208 5 S 0 49.7 460
13:01:48 20 1002 207 9 S 0 50.3 471
13:04:49 19 1002 212 7 SW 0 50.1 475
13:07:48 20 1002 220 5 SW 0 54.8 471
13:10:47 21 1002 221 6 O 0 51.3 471
13:13:46 22 1002 221 8 W 0 49 474
13:16:48 22 1002 221 7 W 0 47.7 474
13:19:47 23 1002 222 4 NO 0 47.7 465
13:22:50 24 1002 225 3 O 0 45.7 462
13:25:50 24 1002 226 6 SW 0 39.8 448
13:28:50 23 1002 221 7 SW 0 39.2 454
13:31:50 22 1002 222 11 SW 0 40.4 463
13:34:47 23 1002 221 8 S 0 44.1 465
13:37:46 23 1002 214 1 0 42.5 459
13:40:48 23 1002 226 2 O 0 43 462
13:43:49 23 1002 231 21 S 0 36.6 472
13:46:50 24 1002 231 5 SW 0 38.6 468
13:49:49 24 1002 229 3 NW 0 39 463
13:52:49 24 1002 224 4 N 0 40 456
13:55:49 24 1002 220 2 S 0 39.1 459
13:58:48 22 1003 224 1 SO 0 38.3 454
14:01:47 23 1002 236 5 S 0 42.7 460
14:04:48 23 1002 235 2 S 0 42.8 459
14:07:50 23 1002 223 8 W 0 40.8 459
14:10:48 22 1002 223 3 SW 0 39.9 456
14:13:49 21 1002 236 4 SO 0 43.1 450
14:16:47 21 1002 232 7 W 0 43.5 457
14:19:49 22 1002 239 3 SW 0 43.8 451
14:22:46 23 1002 241 3 S 0 42.2 454
14:25:51 23 1002 241 3 SW 0 38.3 448
14:28:50 24 1002 242 6 SW 0 35.4 448
14:31:48 25 1002 242 8 S 0 34.8 445
14:34:48 25 1002 243 6 S 0 33.8 454
14:37:48 25 1002 243 2 W 0 33.3 451
14:40:49 25 1002 239 3 SW 0 33.8 450
14:43:50 25 1002 243 3 SO 0 34.3 454
14:46:48 26 1002 242 2 NO 0 35.1 448
14:49:50 25 1002 242 7 W 0 35.3 448
14:52:46 25 1002 242 5 W 0 35.5 445
14:55:51 25 1002 232 2 SW 0 35.9 448
14:58:48 25 1002 228 0 SW 0 35.2 442
15:01:50 24 1002 233 2 SO 0 34.6 439
15:04:49 23 1002 232 2 S 0 34.7 439
15:07:49 23 1002 243 0 NW 0 37.8 436
15:10:51 24 1002 243 2 W 0 36.8 445
15:13:49 24 1002 243 1 S 0 37 442
15:16:47 24 1002 244 5 W 0 37.4 439
15:19:49 25 1002 245 6 SW 0 35.5 439
15:22:48 25 1002 244 5 W 0 34.8 448
15:25:50 25 1002 244 2 SO 0 33.1 428
15:28:48 25 1002 245 7 W 0 33.8 427
15:31:49 25 1002 245 1 W 0 35.2 424
15:34:48 25 1002 245 7 W 0 35.1 422
15:37:49 25 1002 245 9 SO 0 30.6 422
15:40:48 25 1002 245 5 SW 0 31.7 413
15:43:49 25 1002 246 2 W 0 33.5 407
15:46:48 25 1002 245 2 S 0 33.6 407
15:49:48 25 1002 245 4 NW 0 32.6 404
15:52:48 25 1002 244 3 W 0 34 404
15:55:48 25 1002 240 1 W 0 34.4 407
15:58:47 25 1002 244 2 SW 0 34.5 410
16:01:47 25 1002 239 3 W 0 34.4 407
16:04:52 25 1002 245 2 NW 0 33.8 403
16:07:49 25 1002 245 0 SW 0 33.9 404
16:10:50 24 1002 236 3 SW 0 32.7 404
16:13:49 24 1002 245 3 SW 0 33.1 406
16:16:47 24 1002 245 4 W 0 34.8 404
16:19:49 24 1002 244 0 SW 0 35 403
16:22:48 24 1002 245 1 W 0 35.8 407
16:25:47 24 1002 236 1 S 0 35.5 407
16:28:46 24 1002 237 1 S 0 34.1 407
16:31:49 24 1001 245 1 NW 0 34.9 407
16:34:50 24 1002 245 3 SW 0 35.3 407
16:37:50 24 1002 245 1 SW 0 35.5 406
16:40:47 24 1002 244 3 N 0 35.1 406
16:43:50 24 1001 244 5 SW 0 35.7 404
16:46:49 24 1002 245 3 W 0 36.3 403
16:49:51 24 1002 243 1 SO 0 36.7 407
16:52:47 24 1002 241 0 O 0 36.6 408
16:55:48 24 1002 219 2 W 0 34.1 408
16:58:32 23 1002 213 0 S 0 40 407
17:01:48 23 1001 244 1 SW 0 35.8 407
17:04:50 23 1002 242 2 O 0 36.7 407
17:07:48 23 1002 237 1 SW 0 35.9 404
17:10:49 23 1002 241 1 NW 0 36.5 407
17:13:46 23 1002 244 3 NW 0 37.6 406
17:16:47 23 1002 226 2 S 0 37.7 406
17:19:49 23 1002 223 1 SW 0 37.8 407
17:22:48 22 1001 231 3 SO 0 38.6 403
17:25:50 22 1001 242 3 NW 0 38.6 407
17:28:47 23 1002 243 3 SW 0 40 404
17:31:49 23 1002 241 9 W 0 36.6 404
17:34:49 23 1001 243 3 NO 0 38 407
17:37:49 23 1002 242 2 W 0 38.2 407
17:40:49 23 1002 243 1 SW 0 38.5 407
17:43:49 23 1002 225 0 W 0 38.7 406
17:46:47 22 1001 231 0 S 0 39.6 403
17:49:50 22 1002 237 1 SW 0 40.8 407
17:52:48 22 1002 240 0 NW 0 41.1 404
17:55:48 22 1001 239 7 W 0 41.5 404
17:58:47 22 1002 243 0 NW 0 41.8 406
18:01:49 22 1002 240 2 W 0 42.2 407
18:04:49 22 1002 228 3 O 0 39.8 407
18:07:47 22 1001 226 12 S 0 39.3 406
18:10:48 21 1001 226 9 W 0 39.9 404
18:13:47 21 1001 228 3 W 0 40.2 404
18:16:51 20 1001 226 2 SW 0 41.9 407
18:19:46 20 1001 230 1 O 0 43.5 407
18:22:46 20 1001 231 0 S 0 43.4 401
18:25:49 20 1000 230 4 SO 0 42.9 407
18:28:49 20 1001 229 2 S 0 41.6 404
18:31:47 20 1001 232 1 SO 0 41.7 406
18:34:47 20 1001 236 9 SW 0 43.1 406
18:37:51 20 1001 236 3 SO 0 41.6 406
18:40:50 20 1000 236 2 SO 0 42.5 406
18:43:50 20 1001 233 2 SO 0 43.3 403
18:46:48 20 1002 229 1 S 0 43.8 407
18:49:47 20 1001 225 5 SO 0 44.2 406
18:52:49 19 1001 224 0 SW 0 44.5 403
18:55:49 19 1001 221 0 NW 0 44.5 406
18:58:47 19 1001 223 0 S 0 44.9 407
19:01:48 19 1001 224 5 SW 0 45.6 407
19:04:52 19 1001 222 12 SW 0 45.3 404
19:07:51 19 1000 224 2 SO 0 45.2 404
19:10:48 19 1001 222 4 S 0 45.6 404
19:13:47 18 1001 221 1 SO 0 46.1 407
19:16:47 18 1001 219 4 N 0 46.7 407
19:19:50 18 1002 217 3 SO 0 47 403
19:22:47 18 1001 214 2 O 0 48.1 404
19:25:48 18 1000 215 5 S 0 48.6 404
19:28:47 18 1001 212 5 S 0 48.4 404
19:31:50 18 1001 209 3 SW 0 48 407
19:34:48 18 1001 204 1 NW 0 49 407
19:37:47 17 1001 204 0 S 0 49.6 407
19:40:51 17 1002 201 0 SO 0 50.5 407
19:43:46 17 1002 192 1 W 0 51 404
19:46:48 17 1001 185 0 S 0 51.3 407
19:49:47 17 1001 184 0 O 0 51.3 406
19:52:48 17 1001 186 0 S 0 51.8 407
19:55:46 17 1000 185 1 SO 0 52.4 404
19:58:48 17 1001 187 0 W 0 52.6 406
20:01:49 17 1001 182 1 SW 0 52.7 407
20:04:50 16 1001 182 0 SW 0 52.8 407
20:07:48 16 1001 180 1 O 0 53.2 407
20:10:46 16 1001 177 0 SO 0 54 404
20:13:46 16 1001 174 0 S 0 54 406
20:16:48 16 1001 174 1 SW 0 54.3 406
20:19:46 16 1001 173 0 S 0 54.5 404
20:22:49 16 1001 166 0 SW 0 55.2 406
20:25:46 16 1001 161 0 S 0 55.7 407
20:28:46 16 1001 153 0 S 0 56.1 406
20:31:46 15 1001 145 0 S 0 56.3 406
20:34:48 15 1001 145 0 S 0 56.2 407
20:37:46 15 1001 140 0 S 0 56.7 404
20:40:47 15 1000 131 0 S 0 57.1 404
20:43:50 15 1000 122 0 SW 0 57.3 403
20:46:48 15 1000 108 0 N 0 57.7 404
20:49:48 15 1001 98 1 SO 0 58.5 406
20:52:47 15 1002 87 0 S 0 58.3 404
20:55:47 15 1001 76 0 S 0 59.1 407
20:58:47 14 1001 68 0 S 0 59.5 404
21:01:46 14 1001 58 0 S 0 59.5 404
21:04:48 14 1001 48 0 S 0 60 407
21:07:46 14 1001 40 0 S 0 60.3 396
21:10:47 14 1001 32 0 S 0 60.5 408
21:13:47 14 1001 26 0 S 0 60.7 408
21:16:46 14 1001 20 0 S 0 60.8 403
21:19:47 14 1001 14 0 S 0 61.6 405
21:22:46 14 1001 10 0 S 0 62.1 404
21:25:46 13 1002 7 0 S 0 62 407
21:28:47 13 1001 5 0 SW 0 62.5 407
21:31:46 13 1001 3 2 SO 0 63.1 403
21:34:46 13 1001 0 0 SO 0 63.6 406
21:37:46 13 1002 4 0 SO 0 64.5 404
21:40:50 13 1001 4 0 SO 0 64.9 408
21:43:47 13 1002 3 0 SO 0 65.1 404
21:46:47 13 1002 3 0 SO 0 65 403
21:49:46 13 1001 0 0 S 0 65.4 415
21:52:47 13 1002 0 0 S 0 66.1 421
21:55:47 12 1001 0 0 O 0 66.8 427
21:58:47 12 1002 0 0 O 0 67.3 430
22:01:47 12 1002 0 0 O 0 67.8 436
22:04:47 12 1002 0 0 O 0 68.1 448
22:07:46 12 1002 0 0 O 0 67.8 460
22:10:47 12 1002 0 0 O 0 69.3 466
22:13:49 12 1001 0 0 O 0 69.2 468
22:16:49 12 1002 0 0 O 0 69.8 468
22:19:45 11 1001 0 0 O 0 70.2 477
22:22:46 11 1002 0 0 O 0 72.3 477
22:25:48 11 1001 0 0 NO 0 72.9 481
22:28:49 11 1001 0 0 NO 0 73.8 478
22:31:49 11 1002 0 0 NO 0 73.7 477
22:34:47 11 1002 0 0 NO 0 73.9 492
22:37:47 11 1001 0 0 SO 0 74 491
22:40:49 11 1002 0 0 NW 0 75.8 495
22:43:47 11 1001 0 0 NO 0 76.2 494
22:46:49 11 1002 0 0 NO 0 75.7 506
22:49:47 11 1002 0 0 NO 0 75.8 509
22:52:46 10 1001 0 0 S 0 76.4 519
22:55:45 10 1001 0 0 S 0 76.1 521
22:58:47 10 1002 0 0 S 0 76.3 518
23:01:47 10 1002 0 0 S 0 77.2 518
23:04:46 10 1001 0 0 S 0 77.3 521
23:07:47 10 1002 0 0 S 0 77.6 532
23:10:46 10 1002 0 0 S 0 77.9 533
23:13:49 10 1002 0 0 S 0 78.5 537
23:16:45 10 1002 0 0 S 0 79.7 536
23:19:46 10 1001 0 0 S 0 80.5 545
23:22:46 10 1002 0 0 S 0 80.6 550
23:25:47 10 1002 0 0 S 0 80.7 551
23:28:47 10 1002 0 0 N 0 81.6 545
23:31:48 10 1002 0 0 N 0 82.7 549
23:34:47 10 1002 0 0 NW 0 83 554
23:37:50 10 1002 0 0 NW 0 84.1 560
23:40:46 9 1001 0 0 NW 0 84.1 559
23:43:48 9 1002 0 1 NW 0 84.2 559
23:46:46 9 1002 0 0 NW 0 84.4 565
23:49:48 9 1002 0 0 NW 0 84.6 569
23:52:49 9 1002 0 0 NW 0 85 576
23:55:50 9 1002 0 0 NW 0 85.3 568
23:58:50 9 1002 0 0 NW 0 85.5 568

Letzte Änderung : 22-Jul-2022
Copyright Jens Köhler, Wolfsburg, Obere Dorfstraße 10d